Time;durP1;ratioP1;P1;durP2;ratioP2;P2;SDS_P1;SDS_P2;PMS_P1;PMS_P2;Temp;Humidity;BMP_temperature;BMP_pressure;BME280_temperature;BME280_humidity;BME280_pressure;Samples;Min_cycle;Max_cycle;Signal;HPM_P1;HPM_P2
2023/06/11 00:01:26;;;;;;;2.00;1.90;;;17.10;99.90;;;;;;5059912;28;20324;-72
2023/06/11 00:03:54;;;;;;;1.90;1.80;;;17.10;99.90;;;;;;5060393;28;20244;-72
2023/06/11 00:06:22;;;;;;;2.03;1.92;;;17.00;99.90;;;;;;5041521;28;20210;-72
2023/06/11 00:08:51;;;;;;;1.80;1.70;;;17.00;99.90;;;;;;5058396;28;20206;-70
2023/06/11 00:11:18;;;;;;;1.50;1.40;;;17.00;99.90;;;;;;5059213;28;20205;-71
2023/06/11 00:13:46;;;;;;;1.90;1.80;;;16.90;99.90;;;;;;5054961;28;20218;-71
2023/06/11 00:16:15;;;;;;;1.70;1.60;;;16.90;99.90;;;;;;5060295;28;20222;-71
2023/06/11 00:18:43;;;;;;;1.90;1.80;;;16.90;99.90;;;;;;5043578;28;20286;-71
2023/06/11 00:21:11;;;;;;;2.00;1.80;;;16.90;99.90;;;;;;5058349;28;20338;-71
2023/06/11 00:23:38;;;;;;;1.70;1.60;;;16.80;99.90;;;;;;5061596;28;20853;-71
2023/06/11 00:26:06;;;;;;;1.75;1.65;;;16.80;99.90;;;;;;5062113;28;20256;-71
2023/06/11 00:28:33;;;;;;;2.00;1.90;;;16.80;99.90;;;;;;5043711;28;20224;-72
2023/06/11 00:31:01;;;;;;;1.85;1.75;;;16.80;99.90;;;;;;5054955;28;20221;-71
2023/06/11 00:33:29;;;;;;;1.70;1.60;;;16.80;99.90;;;;;;5043844;28;20207;-72
2023/06/11 00:35:56;;;;;;;1.75;1.65;;;16.70;99.90;;;;;;5059383;28;20828;-71
2023/06/11 00:38:24;;;;;;;1.85;1.73;;;16.70;99.90;;;;;;5061218;28;20936;-72
2023/06/11 00:40:51;;;;;;;2.00;1.90;;;16.60;99.90;;;;;;5055244;28;20291;-71
2023/06/11 00:43:21;;;;;;;1.90;1.80;;;16.60;99.90;;;;;;5057598;28;20214;-71
2023/06/11 00:45:50;;;;;;;2.30;2.10;;;16.60;99.90;;;;;;5057795;28;20198;-71
2023/06/11 00:48:19;;;;;;;1.85;1.75;;;16.60;99.90;;;;;;5058048;28;20205;-71
2023/06/11 00:50:48;;;;;;;2.10;2.00;;;16.60;99.90;;;;;;5043334;28;20362;-71
2023/06/11 00:53:17;;;;;;;2.10;2.00;;;16.60;99.90;;;;;;5059257;28;20667;-71
2023/06/11 00:55:45;;;;;;;2.58;1.50;;;16.60;99.90;;;;;;5057741;28;20199;-71
2023/06/11 00:58:14;;;;;;;2.33;2.13;;;16.60;99.90;;;;;;5059561;28;20870;-71
2023/06/11 01:00:44;;;;;;;2.40;2.20;;;16.50;99.90;;;;;;5043315;28;20213;-71
2023/06/11 01:03:17;;;;;;;2.30;2.10;;;16.50;99.90;;;;;;5059735;28;20317;-71
2023/06/11 01:05:50;;;;;;;1.90;1.80;;;16.50;99.90;;;;;;5057278;28;20229;-71
2023/06/11 01:08:19;;;;;;;2.28;2.08;;;16.50;99.90;;;;;;5056045;28;20309;-71
2023/06/11 01:10:49;;;;;;;1.95;1.85;;;16.40;99.90;;;;;;5059796;28;20201;-71
2023/06/11 01:13:16;;;;;;;3.72;1.90;;;16.40;99.90;;;;;;5057163;28;20256;-72
2023/06/11 01:15:43;;;;;;;1.90;1.80;;;16.40;99.90;;;;;;5055281;28;20206;-71
2023/06/11 01:18:19;;;;;;;2.13;2.03;;;16.40;99.90;;;;;;5054399;28;20195;-71
2023/06/11 01:20:52;;;;;;;2.20;2.10;;;16.40;99.90;;;;;;5056502;28;20206;-71
2023/06/11 01:23:33;;;;;;;2.00;1.90;;;16.30;99.90;;;;;;5061020;28;20218;-71
2023/06/11 01:26:19;;;;;;;2.20;2.10;;;16.30;99.90;;;;;;5056367;28;20222;-71
2023/06/11 01:28:51;;;;;;;2.03;1.92;;;16.30;99.90;;;;;;5044475;28;20232;-71
2023/06/11 01:31:20;;;;;;;3.90;1.90;;;16.20;99.90;;;;;;5055067;28;20290;-71
2023/06/11 01:33:47;;;;;;;1.80;1.70;;;16.20;99.90;;;;;;5027660;28;20623;-71
2023/06/11 01:36:14;;;;;;;2.28;2.17;;;16.20;99.90;;;;;;5045594;28;20301;-71
2023/06/11 01:38:44;;;;;;;2.17;2.03;;;16.20;99.90;;;;;;5043435;28;20203;-71
2023/06/11 01:41:13;;;;;;;2.05;1.75;;;16.20;99.90;;;;;;5055458;28;20732;-71
2023/06/11 01:43:40;;;;;;;2.03;1.92;;;16.20;99.90;;;;;;5056912;28;20265;-71
2023/06/11 01:46:09;;;;;;;2.50;2.00;;;16.20;99.90;;;;;;5058631;28;20822;-71
2023/06/11 01:48:37;;;;;;;2.38;2.20;;;16.20;99.90;;;;;;5043066;28;21005;-71
2023/06/11 01:51:04;;;;;;;1.88;1.77;;;16.10;99.90;;;;;;5046788;28;20278;-71
2023/06/11 01:53:31;;;;;;;1.98;1.88;;;16.10;99.90;;;;;;5069251;28;20221;-71
2023/06/11 01:55:58;;;;;;;1.95;1.85;;;16.10;99.90;;;;;;5071746;28;20202;-71
2023/06/11 01:58:26;;;;;;;2.05;1.95;;;16.10;99.90;;;;;;5057345;28;20213;-71
2023/06/11 02:00:53;;;;;;;1.70;1.60;;;16.10;99.90;;;;;;5064636;28;20727;-71
2023/06/11 02:03:21;;;;;;;1.88;1.67;;;16.10;99.90;;;;;;5060494;28;20226;-73
2023/06/11 02:05:48;;;;;;;2.15;2.05;;;16.10;99.90;;;;;;5059401;28;20271;-72
2023/06/11 02:08:16;;;;;;;2.08;1.92;;;16.10;99.90;;;;;;5060703;28;20225;-71
2023/06/11 02:10:44;;;;;;;1.83;1.73;;;16.10;99.90;;;;;;5044517;28;20237;-72
2023/06/11 02:13:11;;;;;;;2.17;2.08;;;16.10;99.90;;;;;;5062328;28;20229;-71
2023/06/11 02:15:38;;;;;;;2.00;1.75;;;16.10;99.90;;;;;;5057894;28;20226;-71
2023/06/11 02:18:06;;;;;;;2.00;1.90;;;16.10;99.90;;;;;;5057333;28;20299;-71
2023/06/11 02:20:35;;;;;;;1.98;1.88;;;16.10;99.90;;;;;;5060205;28;20256;-71
2023/06/11 02:23:03;;;;;;;1.90;1.80;;;16.00;99.90;;;;;;5047216;28;20265;-71
2023/06/11 02:25:30;;;;;;;2.08;1.98;;;16.00;99.90;;;;;;5062024;28;20222;-71
2023/06/11 02:27:58;;;;;;;2.00;1.90;;;16.00;99.90;;;;;;5046116;28;20699;-72
2023/06/11 02:30:25;;;;;;;2.10;2.00;;;16.00;99.90;;;;;;5057834;28;20286;-72
2023/06/11 02:32:52;;;;;;;2.00;1.90;;;16.00;99.90;;;;;;5060519;28;20265;-71
2023/06/11 02:35:19;;;;;;;2.78;2.15;;;15.90;99.90;;;;;;5061149;28;20334;-72
2023/06/11 02:37:48;;;;;;;2.38;2.28;;;15.90;99.90;;;;;;5047417;28;20293;-71
2023/06/11 02:40:15;;;;;;;2.10;2.00;;;15.90;99.90;;;;;;5048333;28;20204;-70
2023/06/11 02:42:42;;;;;;;2.40;2.30;;;15.90;99.90;;;;;;5060482;28;20238;-70
2023/06/11 02:45:09;;;;;;;1.92;1.83;;;15.80;99.90;;;;;;5057368;28;20286;-70
2023/06/11 02:47:36;;;;;;;1.95;1.85;;;15.80;99.90;;;;;;5062714;28;20203;-70
2023/06/11 02:50:04;;;;;;;2.17;2.08;;;15.80;99.90;;;;;;5059349;28;20577;-70
2023/06/11 02:52:31;;;;;;;2.00;1.90;;;15.80;99.90;;;;;;5059288;28;20248;-70
2023/06/11 02:55:00;;;;;;;2.13;2.03;;;15.70;99.90;;;;;;5043443;28;20322;-70
2023/06/11 02:57:26;;;;;;;1.90;1.80;;;15.70;99.90;;;;;;5057029;28;20234;-70
2023/06/11 02:59:53;;;;;;;2.05;1.95;;;15.70;99.90;;;;;;5059267;28;20234;-70
2023/06/11 03:02:20;;;;;;;2.22;2.10;;;15.60;99.90;;;;;;5058500;28;20691;-71
2023/06/11 03:04:47;;;;;;;2.10;1.90;;;15.60;99.90;;;;;;5060242;28;20310;-71
2023/06/11 03:07:15;;;;;;;2.13;2.03;;;15.60;99.90;;;;;;5056108;28;20609;-71
2023/06/11 03:09:42;;;;;;;2.13;2.03;;;15.60;99.90;;;;;;5060060;28;20291;-71
2023/06/11 03:12:12;;;;;;;2.10;2.00;;;15.60;99.90;;;;;;5055682;28;20226;-71
2023/06/11 03:14:40;;;;;;;2.50;2.40;;;15.60;99.90;;;;;;5047470;28;20595;-71
2023/06/11 03:17:07;;;;;;;2.10;2.00;;;15.50;99.90;;;;;;5061387;28;20206;-71
2023/06/11 03:19:34;;;;;;;2.40;2.20;;;15.50;99.90;;;;;;5057931;28;20745;-71
2023/06/11 03:22:01;;;;;;;2.33;2.22;;;15.50;99.90;;;;;;5042204;28;20203;-71
2023/06/11 03:24:28;;;;;;;1.83;1.73;;;15.50;99.90;;;;;;5046529;28;20250;-71
2023/06/11 03:26:55;;;;;;;2.47;2.28;;;15.50;99.90;;;;;;5063827;28;20225;-71
2023/06/11 03:29:24;;;;;;;2.10;2.00;;;15.50;99.90;;;;;;5061154;28;20297;-71
2023/06/11 03:31:51;;;;;;;2.25;2.15;;;15.50;99.90;;;;;;5038172;28;20447;-71
2023/06/11 03:34:18;;;;;;;2.50;2.30;;;15.50;99.90;;;;;;5061864;28;20304;-71
2023/06/11 03:36:46;;;;;;;2.38;2.00;;;15.50;99.90;;;;;;5057832;28;20210;-71
2023/06/11 03:39:13;;;;;;;2.20;2.00;;;15.50;99.90;;;;;;5062141;28;20281;-70
2023/06/11 03:41:40;;;;;;;1.80;1.70;;;15.50;99.90;;;;;;5058852;28;20292;-71
2023/06/11 03:44:07;;;;;;;2.20;2.10;;;15.50;99.90;;;;;;5047972;28;20317;-71
2023/06/11 03:46:36;;;;;;;2.63;2.42;;;15.50;99.90;;;;;;5055084;28;20731;-71
2023/06/11 03:49:03;;;;;;;2.00;1.90;;;15.50;99.90;;;;;;5054305;28;20311;-71
2023/06/11 03:51:30;;;;;;;2.70;2.50;;;15.50;99.90;;;;;;5060608;28;20725;-71
2023/06/11 03:53:57;;;;;;;2.17;2.08;;;15.60;99.90;;;;;;5058065;28;20301;-71
2023/06/11 03:56:24;;;;;;;2.42;2.33;;;15.70;99.90;;;;;;5060604;28;20233;-72
2023/06/11 03:58:51;;;;;;;2.53;2.30;;;15.70;99.90;;;;;;5054037;28;20281;-72
2023/06/11 04:01:19;;;;;;;2.30;2.20;;;15.70;99.90;;;;;;5058254;28;20680;-71
2023/06/11 04:03:47;;;;;;;2.22;2.10;;;15.70;99.90;;;;;;5059113;28;20238;-71
2023/06/11 04:06:16;;;;;;;2.42;2.22;;;15.80;99.90;;;;;;5062422;28;20315;-72
2023/06/11 04:08:43;;;;;;;2.42;2.25;;;15.90;99.90;;;;;;5061977;28;20206;-71
2023/06/11 04:11:10;;;;;;;2.47;2.30;;;15.90;99.90;;;;;;5056543;28;20829;-72
2023/06/11 04:13:37;;;;;;;2.75;2.55;;;16.00;99.90;;;;;;5060032;28;20253;-71
2023/06/11 04:16:05;;;;;;;2.35;2.25;;;16.00;99.90;;;;;;5054462;28;20282;-72
2023/06/11 04:18:32;;;;;;;2.20;2.10;;;16.10;99.90;;;;;;5041740;28;20293;-72
2023/06/11 04:21:01;;;;;;;2.35;2.25;;;16.10;99.90;;;;;;5054504;28;20690;-71
2023/06/11 04:23:28;;;;;;;2.25;2.15;;;16.20;99.90;;;;;;5059217;28;20372;-71
2023/06/11 04:25:56;;;;;;;2.42;2.33;;;16.20;99.90;;;;;;5059837;28;20303;-71
2023/06/11 04:28:23;;;;;;;2.50;2.30;;;16.30;99.90;;;;;;5040607;28;20325;-71
2023/06/11 04:30:50;;;;;;;2.95;2.75;;;16.40;99.90;;;;;;5056535;28;20198;-72
2023/06/11 04:33:17;;;;;;;2.85;2.65;;;16.50;99.90;;;;;;5042356;28;20293;-71
2023/06/11 04:35:47;;;;;;;2.83;2.63;;;16.50;99.90;;;;;;5061918;28;20229;-71
2023/06/11 04:38:15;;;;;;;2.70;2.50;;;16.50;99.90;;;;;;5061862;28;20974;-71
2023/06/11 04:40:42;;;;;;;3.63;3.28;;;16.60;99.90;;;;;;5056268;28;20325;-71
2023/06/11 04:43:09;;;;;;;3.20;2.80;;;16.60;99.90;;;;;;5057105;28;20228;-71
2023/06/11 04:45:38;;;;;;;2.92;2.72;;;16.70;99.90;;;;;;5058971;28;20218;-71
2023/06/11 04:48:06;;;;;;;3.05;2.83;;;16.60;99.90;;;;;;5059245;28;20638;-71
2023/06/11 04:50:36;;;;;;;2.90;2.70;;;16.70;99.90;;;;;;5057842;28;20294;-71
2023/06/11 04:53:03;;;;;;;3.45;3.15;;;16.70;99.90;;;;;;5061091;28;20202;-71
2023/06/11 04:55:32;;;;;;;3.10;2.90;;;16.80;99.90;;;;;;5052955;28;20272;-71
2023/06/11 04:57:59;;;;;;;3.20;2.95;;;17.00;99.90;;;;;;5059688;28;20198;-71
2023/06/11 05:00:26;;;;;;;3.20;3.00;;;17.00;99.90;;;;;;5042910;28;20225;-71
2023/06/11 05:02:53;;;;;;;3.03;2.83;;;17.20;99.90;;;;;;5057178;28;20289;-71
2023/06/11 05:05:20;;;;;;;3.78;3.45;;;17.30;99.90;;;;;;5054854;28;20216;-71
2023/06/11 05:07:47;;;;;;;3.35;3.05;;;17.40;99.90;;;;;;5062858;28;20297;-71
2023/06/11 05:10:17;;;;;;;3.30;3.10;;;17.50;99.90;;;;;;5044402;28;20199;-71
2023/06/11 05:12:46;;;;;;;3.80;3.50;;;17.60;99.90;;;;;;5056412;28;20197;-71
2023/06/11 05:15:14;;;;;;;3.55;3.25;;;17.70;99.90;;;;;;5059523;28;20254;-71
2023/06/11 05:17:41;;;;;;;3.03;2.83;;;17.80;99.90;;;;;;5059784;28;20241;-71
2023/06/11 05:20:09;;;;;;;3.33;3.03;;;17.90;99.90;;;;;;5039706;28;20229;-71
2023/06/11 05:22:36;;;;;;;3.78;3.47;;;18.00;99.90;;;;;;5061335;28;20293;-71
2023/06/11 05:25:04;;;;;;;3.72;3.42;;;18.10;99.90;;;;;;5060204;28;20222;-71
2023/06/11 05:27:31;;;;;;;2.95;2.75;;;18.10;99.90;;;;;;5060762;28;20202;-71
2023/06/11 05:30:00;;;;;;;3.63;3.33;;;18.20;99.90;;;;;;5034034;28;20198;-71
2023/06/11 05:32:30;;;;;;;4.10;3.80;;;18.40;99.90;;;;;;5062445;28;20837;-71
2023/06/11 05:34:57;;;;;;;3.33;3.13;;;18.40;99.90;;;;;;5059032;28;20214;-72
2023/06/11 05:37:25;;;;;;;4.10;3.80;;;18.40;99.90;;;;;;5060945;28;20201;-72
2023/06/11 05:39:51;;;;;;;4.15;3.33;;;18.40;99.90;;;;;;5062681;28;20202;-72
2023/06/11 05:42:19;;;;;;;4.07;3.72;;;18.40;99.90;;;;;;5061829;28;20195;-72
2023/06/11 05:44:46;;;;;;;4.40;4.10;;;18.50;99.90;;;;;;5059369;28;20309;-72
2023/06/11 05:47:14;;;;;;;4.60;4.03;;;18.50;99.90;;;;;;5062993;28;20628;-72
2023/06/11 05:49:42;;;;;;;4.22;3.83;;;18.50;99.90;;;;;;5045012;28;20857;-72
2023/06/11 05:52:09;;;;;;;4.40;4.00;;;18.60;99.90;;;;;;5060251;28;20198;-72
2023/06/11 05:54:36;;;;;;;4.65;4.28;;;18.80;99.90;;;;;;5062098;28;20301;-72
2023/06/11 05:57:03;;;;;;;4.65;4.25;;;18.90;99.90;;;;;;5063304;28;20226;-72
2023/06/11 05:59:31;;;;;;;3.92;3.63;;;19.00;99.90;;;;;;5046016;28;20213;-72
2023/06/11 06:01:58;;;;;;;5.45;5.05;;;19.10;99.90;;;;;;5057685;28;20765;-72
2023/06/11 06:04:26;;;;;;;4.93;4.60;;;19.20;99.90;;;;;;5059456;28;20283;-72
2023/06/11 06:06:53;;;;;;;5.15;4.75;;;19.20;99.90;;;;;;5059166;28;20952;-72
2023/06/11 06:09:21;;;;;;;5.00;4.60;;;19.30;99.90;;;;;;5057538;28;20260;-72
2023/06/11 06:11:47;;;;;;;6.00;5.35;;;19.50;99.90;;;;;;5060162;28;20289;-72
2023/06/11 06:14:15;;;;;;;5.15;4.75;;;19.60;99.90;;;;;;5060025;28;20280;-72
2023/06/11 06:16:42;;;;;;;4.50;4.10;;;19.60;99.90;;;;;;5048813;28;20209;-71
2023/06/11 06:19:09;;;;;;;4.72;4.32;;;19.50;99.90;;;;;;5053096;28;20277;-71
2023/06/11 06:21:37;;;;;;;4.90;4.50;;;19.60;99.90;;;;;;5055612;28;20840;-71
2023/06/11 06:24:05;;;;;;;5.32;4.78;;;19.60;99.90;;;;;;5061444;28;20306;-71
2023/06/11 06:26:33;;;;;;;4.60;4.28;;;19.70;99.90;;;;;;5057515;28;20683;-71
2023/06/11 06:29:02;;;;;;;3.75;3.50;;;19.90;99.90;;;;;;5047093;28;20194;-71
2023/06/11 06:31:30;;;;;;;4.15;3.75;;;20.20;99.90;;;;;;5064930;28;20206;-72
2023/06/11 06:33:57;;;;;;;4.70;4.30;;;20.40;99.90;;;;;;5061977;28;20222;-72
2023/06/11 06:36:24;;;;;;;4.60;4.20;;;20.30;99.90;;;;;;5060458;28;20356;-72
2023/06/11 06:38:53;;;;;;;4.50;3.53;;;20.20;99.90;;;;;;5044578;28;20201;-72
2023/06/11 06:41:20;;;;;;;4.25;3.95;;;20.20;99.90;;;;;;5062833;28;20289;-71
2023/06/11 06:43:47;;;;;;;4.43;4.03;;;20.20;99.90;;;;;;5057739;28;20308;-72
2023/06/11 06:46:14;;;;;;;3.90;3.63;;;20.30;99.90;;;;;;5045957;28;20301;-72
2023/06/11 06:48:41;;;;;;;4.45;4.05;;;20.40;99.90;;;;;;5061671;28;20285;-72
2023/06/11 06:51:08;;;;;;;4.22;3.90;;;20.40;99.90;;;;;;5061632;28;20281;-72
2023/06/11 06:53:36;;;;;;;4.90;4.50;;;20.50;99.90;;;;;;5040898;28;20230;-72
2023/06/11 06:56:05;;;;;;;4.40;3.97;;;20.60;99.90;;;;;;5055888;28;20602;-72
2023/06/11 06:58:33;;;;;;;6.25;3.67;;;20.70;99.90;;;;;;5059479;28;20231;-72
2023/06/11 07:01:00;;;;;;;4.18;3.85;;;20.80;99.90;;;;;;5059930;28;20194;-71
2023/06/11 07:03:27;;;;;;;4.80;3.67;;;20.80;99.90;;;;;;5061944;28;20233;-70
2023/06/11 07:05:54;;;;;;;3.60;3.30;;;20.70;99.90;;;;;;5061265;28;20229;-71
2023/06/11 07:08:22;;;;;;;4.25;3.85;;;20.70;99.90;;;;;;5057702;28;20286;-71
2023/06/11 07:10:51;;;;;;;4.28;3.88;;;20.90;99.90;;;;;;5058019;28;20238;-71
2023/06/11 07:13:20;;;;;;;3.95;3.55;;;20.90;99.90;;;;;;5058212;28;20226;-72
2023/06/11 07:15:47;;;;;;;3.92;3.63;;;20.90;99.90;;;;;;5061314;28;20279;-79
2023/06/11 07:18:14;;;;;;;4.00;3.70;;;21.00;99.90;;;;;;5056657;28;20252;-79
2023/06/11 07:20:41;;;;;;;4.25;3.88;;;21.20;99.90;;;;;;5084948;28;20195;-79
2023/06/11 07:23:08;;;;;;;3.90;3.60;;;21.20;99.90;;;;;;5087176;28;20240;-79
2023/06/11 07:31:26;;;;;;;5.07;4.05;;;21.40;99.90;;;;;;5055832;28;20226;-76
2023/06/11 07:33:53;;;;;;;4.20;3.90;;;21.40;99.90;;;;;;5053933;28;20218;-76
2023/06/11 07:36:20;;;;;;;4.22;3.83;;;21.50;99.90;;;;;;5040642;28;20276;-78
2023/06/11 07:38:47;;;;;;;4.10;3.80;;;21.60;99.90;;;;;;5038655;28;20264;-77
2023/06/11 07:41:14;;;;;;;3.85;3.55;;;21.80;99.90;;;;;;5036988;28;20282;-76
2023/06/11 07:43:41;;;;;;;4.35;3.80;;;21.80;99.90;;;;;;5037984;28;20289;-76
2023/06/11 07:46:08;;;;;;;4.20;3.80;;;21.90;99.90;;;;;;5044329;28;20243;-77
2023/06/11 07:48:41;;;;;;;4.25;3.95;;;21.90;99.90;;;;;;5035255;28;20196;-76
2023/06/11 07:51:08;;;;;;;4.22;3.83;;;22.00;99.90;;;;;;5040852;28;20206;-78
2023/06/11 07:53:37;;;;;;;4.22;3.92;;;22.10;99.90;;;;;;5038963;28;20269;-76
2023/06/11 07:56:04;;;;;;;3.90;3.60;;;22.40;99.90;;;;;;5033946;28;20195;-76
2023/06/11 07:58:31;;;;;;;3.60;3.30;;;22.60;99.90;;;;;;5036810;28;20916;-77
2023/06/11 08:00:58;;;;;;;4.35;4.05;;;22.80;99.90;;;;;;5038730;28;20261;-76
2023/06/11 08:03:25;;;;;;;4.10;3.80;;;22.80;99.90;;;;;;5040367;28;20207;-76
2023/06/11 08:05:53;;;;;;;5.97;4.20;;;22.70;99.90;;;;;;5038583;28;20717;-76
2023/06/11 08:08:21;;;;;;;4.80;4.40;;;22.70;99.90;;;;;;5035829;28;20735;-77
2023/06/11 08:10:50;;;;;;;4.47;4.13;;;22.60;99.90;;;;;;5029255;28;20615;-76
2023/06/11 08:13:18;;;;;;;3.67;3.38;;;22.80;99.90;;;;;;5031097;28;20206;-76
2023/06/11 08:15:45;;;;;;;3.97;3.67;;;23.10;99.90;;;;;;5035275;28;20849;-77
2023/06/11 08:18:12;;;;;;;4.20;3.80;;;23.10;99.90;;;;;;5033291;28;20208;-77
2023/06/11 08:20:39;;;;;;;4.55;4.13;;;23.10;99.90;;;;;;5032881;28;20231;-77
2023/06/11 08:23:07;;;;;;;5.05;4.60;;;23.20;99.90;;;;;;5033701;28;20539;-76
2023/06/11 08:25:36;;;;;;;4.90;4.15;;;23.30;99.90;;;;;;5027832;28;20223;-76
2023/06/11 08:28:03;;;;;;;4.10;3.67;;;23.40;99.90;;;;;;5035942;28;20319;-77
2023/06/11 08:30:30;;;;;;;4.03;3.72;;;23.70;99.90;;;;;;5033363;28;20671;-76
2023/06/11 08:32:57;;;;;;;4.63;4.20;;;24.00;99.90;;;;;;5035393;28;20234;-77
2023/06/11 08:35:24;;;;;;;4.85;4.03;;;24.20;99.90;;;;;;5034026;28;20220;-76
2023/06/11 08:37:51;;;;;;;4.35;4.05;;;24.30;99.90;;;;;;5035232;28;20897;-77
2023/06/11 08:40:19;;;;;;;4.10;3.80;;;24.30;99.90;;;;;;5033639;28;20245;-77
2023/06/11 08:42:47;;;;;;;4.50;4.18;;;24.30;99.90;;;;;;5034957;28;20291;-77
2023/06/11 08:45:14;;;;;;;4.93;4.53;;;24.30;99.90;;;;;;5034193;28;20255;-75
2023/06/11 08:47:46;;;;;;;4.13;3.83;;;24.10;99.90;;;;;;5032295;28;20203;-77
2023/06/11 08:50:13;;;;;;;5.93;4.05;;;24.00;99.90;;;;;;5032438;28;20287;-76
2023/06/11 08:52:42;;;;;;;8.93;4.75;;;24.00;99.90;;;;;;5035058;28;20210;-76
2023/06/11 08:55:10;;;;;;;3.78;3.47;;;24.00;99.90;;;;;;5030109;28;20254;-76
2023/06/11 08:57:38;;;;;;;4.40;4.00;;;24.10;99.90;;;;;;5036440;28;20290;-77
2023/06/11 09:00:09;;;;;;;3.67;3.38;;;24.20;99.90;;;;;;5037972;28;20204;-76
2023/06/11 09:02:36;;;;;;;3.65;3.40;;;24.40;99.90;;;;;;5033419;28;20199;-77
2023/06/11 09:05:03;;;;;;;4.28;3.97;;;24.50;99.90;;;;;;5034508;28;20226;-76
2023/06/11 09:07:31;;;;;;;4.30;3.92;;;24.50;99.90;;;;;;5031099;28;20301;-77
2023/06/11 09:10:06;;;;;;;3.92;3.60;;;24.40;99.90;;;;;;5035240;28;20907;-76
2023/06/11 09:12:33;;;;;;;4.35;3.67;;;24.50;99.90;;;;;;5033759;28;20290;-77
2023/06/11 09:15:01;;;;;;;4.07;3.78;;;24.70;99.90;;;;;;5035141;28;20223;-77
2023/06/11 09:17:34;;;;;;;4.18;3.85;;;24.80;99.90;;;;;;5034672;28;20272;-77
2023/06/11 09:20:05;;;;;;;3.80;3.50;;;24.80;99.90;;;;;;5035784;28;20854;-77
2023/06/11 09:22:34;;;;;;;3.88;3.58;;;25.00;99.90;;;;;;5034115;28;20246;-76
2023/06/11 09:25:04;;;;;;;4.35;4.05;;;25.20;99.90;;;;;;5035891;28;20280;-77
2023/06/11 09:27:31;;;;;;;5.68;3.33;;;25.10;99.90;;;;;;5036734;28;20210;-77
2023/06/11 09:30:08;;;;;;;4.15;3.80;;;25.10;99.90;;;;;;5036328;28;20298;-77
2023/06/11 09:32:39;;;;;;;4.40;4.00;;;25.10;99.90;;;;;;5035955;28;20298;-77
2023/06/11 09:35:08;;;;;;;4.50;4.10;;;25.30;99.90;;;;;;5039810;28;20388;-77
2023/06/11 09:37:43;;;;;;;3.30;3.10;;;25.40;99.90;;;;;;5042187;28;20260;-78
2023/06/11 09:40:12;;;;;;;4.30;3.90;;;25.40;99.90;;;;;;5039768;28;20282;-77
2023/06/11 09:42:40;;;;;;;4.35;3.95;;;25.50;99.90;;;;;;5041637;28;20893;-77
2023/06/11 09:45:13;;;;;;;3.78;3.47;;;25.50;99.90;;;;;;5043964;28;20229;-77
2023/06/11 09:47:41;;;;;;;3.90;3.60;;;25.50;99.90;;;;;;5043233;28;20261;-77
2023/06/11 09:50:09;;;;;;;5.13;3.70;;;25.50;99.90;;;;;;5044282;28;20199;-76
2023/06/11 09:52:39;;;;;;;3.75;3.45;;;25.50;99.90;;;;;;5040157;28;20245;-76
2023/06/11 09:55:09;;;;;;;4.15;3.85;;;25.60;99.90;;;;;;5040224;28;20233;-78
2023/06/11 09:57:38;;;;;;;4.10;3.80;;;25.80;99.90;;;;;;5037152;28;20196;-76
2023/06/11 10:00:09;;;;;;;4.20;3.67;;;26.00;99.90;;;;;;5042249;28;20298;-77
2023/06/11 10:02:39;;;;;;;4.10;3.65;;;25.90;99.90;;;;;;5041015;28;20236;-77
2023/06/11 10:05:07;;;;;;;4.15;3.75;;;26.00;99.90;;;;;;5043203;28;20222;-77
2023/06/11 10:07:40;;;;;;;3.70;3.50;;;26.00;99.90;;;;;;5041214;28;20226;-77
2023/06/11 10:10:11;;;;;;;3.47;3.17;;;25.80;99.90;;;;;;5041948;28;21921;-77
2023/06/11 10:12:38;;;;;;;3.40;3.10;;;25.80;99.90;;;;;;5044996;28;20636;-76
2023/06/11 10:15:10;;;;;;;3.38;3.17;;;26.20;99.90;;;;;;5045048;28;20537;-76
2023/06/11 10:17:48;;;;;;;3.65;3.45;;;26.20;99.90;;;;;;5044145;28;20203;-77
2023/06/11 10:20:21;;;;;;;4.35;4.05;;;26.40;99.90;;;;;;5041611;28;20199;-76
2023/06/11 10:22:48;;;;;;;3.50;3.30;;;26.20;99.90;;;;;;5045044;28;20925;-77
2023/06/11 10:25:16;;;;;;;3.35;3.15;;;26.30;99.90;;;;;;5047486;28;20270;-78
2023/06/11 10:27:44;;;;;;;3.78;3.47;;;26.40;99.90;;;;;;5048911;28;20230;-77
2023/06/11 10:30:11;;;;;;;5.22;4.13;;;26.40;99.90;;;;;;5046374;28;20211;-79
2023/06/11 10:32:50;;;;;;;4.15;3.65;;;26.30;99.90;;;;;;5050894;28;20199;-78
2023/06/11 10:35:23;;;;;;;4.03;3.63;;;26.40;99.90;;;;;;5045480;28;20246;-78
2023/06/11 10:37:51;;;;;;;3.88;3.55;;;26.60;99.90;;;;;;5039506;28;20234;-77
2023/06/11 10:40:18;;;;;;;4.07;3.78;;;26.70;99.90;;;;;;5038196;28;20245;-77
2023/06/11 10:42:51;;;;;;;3.67;3.38;;;27.00;99.90;;;;;;5036412;28;20230;-77
2023/06/11 10:45:18;;;;;;;3.63;3.33;;;27.00;99.90;;;;;;5039460;28;20222;-78
2023/06/11 10:47:47;;;;;;;3.13;2.90;;;26.90;99.90;;;;;;5036258;28;20215;-77
2023/06/11 10:50:17;;;;;;;3.85;3.55;;;26.90;99.90;;;;;;5035047;28;20230;-77
2023/06/11 10:52:51;;;;;;;3.30;3.10;;;27.10;99.90;;;;;;5034316;28;21223;-77
2023/06/11 10:55:20;;;;;;;3.63;3.33;;;27.20;99.90;;;;;;5039806;28;21018;-78
2023/06/11 10:57:47;;;;;;;3.38;3.08;;;27.30;99.90;;;;;;5037072;28;20199;-79
2023/06/11 11:00:15;;;;;;;3.45;3.22;;;27.40;99.90;;;;;;5033993;28;20753;-77
2023/06/11 11:02:42;;;;;;;3.35;3.10;;;27.50;99.90;;;;;;5035003;28;20211;-78
2023/06/11 11:05:10;;;;;;;3.20;3.00;;;27.60;99.90;;;;;;5034345;28;20957;-78
2023/06/11 11:07:43;;;;;;;3.22;3.03;;;27.90;99.90;;;;;;5036560;28;20326;-77
2023/06/11 11:10:12;;;;;;;3.25;3.05;;;27.90;99.90;;;;;;5034727;28;20597;-77
2023/06/11 11:12:40;;;;;;;2.72;2.53;;;27.50;99.90;;;;;;5039671;28;20204;-78
2023/06/11 11:15:07;;;;;;;2.60;2.40;;;26.90;99.90;;;;;;5035914;28;20238;-79
2023/06/11 11:17:35;;;;;;;2.53;2.42;;;26.40;99.90;;;;;;5034677;28;20206;-76
2023/06/11 11:20:04;;;;;;;3.30;3.00;;;26.70;99.90;;;;;;5034954;28;20215;-78
2023/06/11 11:22:30;;;;;;;3.00;2.80;;;27.20;99.90;;;;;;5037803;28;20211;-78
2023/06/11 11:25:03;;;;;;;2.88;2.50;;;27.30;99.90;;;;;;5036209;28;20398;-76
2023/06/11 11:27:30;;;;;;;2.97;2.78;;;27.40;99.90;;;;;;5036127;28;20557;-76
2023/06/11 11:30:00;;;;;;;3.20;3.00;;;27.40;99.90;;;;;;5038616;28;20208;-77
2023/06/11 11:32:29;;;;;;;3.83;3.53;;;27.50;99.90;;;;;;5034564;28;20425;-77
2023/06/11 11:34:58;;;;;;;3.47;3.17;;;27.60;99.90;;;;;;5038512;28;20230;-76
2023/06/11 11:37:24;;;;;;;3.60;3.30;;;27.60;99.90;;;;;;5035629;28;20204;-77
2023/06/11 11:39:54;;;;;;;3.65;3.40;;;27.90;99.90;;;;;;5034279;28;20247;-77
2023/06/11 11:42:23;;;;;;;3.88;3.50;;;28.00;99.90;;;;;;5036148;28;20206;-77
2023/06/11 11:44:51;;;;;;;3.83;3.53;;;27.90;99.90;;;;;;5034681;28;20441;-76
2023/06/11 11:47:20;;;;;;;3.72;3.42;;;28.00;99.90;;;;;;5031486;28;20228;-78
2023/06/11 11:49:54;;;;;;;3.40;3.15;;;28.00;99.90;;;;;;5033689;28;20206;-77
2023/06/11 11:52:22;;;;;;;3.30;3.05;;;28.30;99.90;;;;;;5030581;28;20211;-76
2023/06/11 11:54:49;;;;;;;3.05;2.85;;;28.30;99.90;;;;;;5034697;28;20230;-76
2023/06/11 11:57:20;;;;;;;2.92;2.72;;;28.40;99.90;;;;;;5027397;28;20196;-77
2023/06/11 11:59:53;;;;;;;2.70;2.50;;;28.80;99.90;;;;;;5034382;28;20313;-77
2023/06/11 12:02:27;;;;;;;2.78;2.58;;;28.90;99.90;;;;;;5033702;28;20214;-76
2023/06/11 12:04:59;;;;;;;2.80;2.60;;;29.20;99.90;;;;;;5032660;28;20226;-78
2023/06/11 12:07:26;;;;;;;2.13;2.03;;;29.30;99.90;;;;;;5033611;28;20218;-77
2023/06/11 12:09:53;;;;;;;3.40;2.72;;;29.40;99.90;;;;;;5036337;28;20683;-77
2023/06/11 12:12:20;;;;;;;2.88;2.67;;;29.50;99.90;;;;;;5032433;28;20242;-76
2023/06/11 12:14:48;;;;;;;2.60;2.40;;;29.70;99.90;;;;;;5034163;28;20426;-77
2023/06/11 12:17:15;;;;;;;3.00;2.50;;;29.60;99.90;;;;;;5033241;28;20241;-78
2023/06/11 12:19:42;;;;;;;2.60;2.40;;;29.40;99.90;;;;;;5034905;28;20294;-77
2023/06/11 12:22:10;;;;;;;4.03;2.65;;;28.70;99.90;;;;;;5032074;28;20226;-77
2023/06/11 12:24:37;;;;;;;2.58;2.38;;;28.20;99.90;;;;;;5036627;28;20216;-78
2023/06/11 12:27:04;;;;;;;2.47;2.30;;;28.30;99.90;;;;;;5028647;28;20211;-77
2023/06/11 12:29:31;;;;;;;3.45;2.10;;;28.70;99.90;;;;;;5031601;28;20213;-77
2023/06/11 12:32:00;;;;;;;2.50;2.30;;;28.90;99.90;;;;;;5033000;28;20292;-78
2023/06/11 12:34:27;;;;;;;2.53;2.33;;;29.20;99.90;;;;;;5031336;28;20268;-76
2023/06/11 12:36:55;;;;;;;3.65;2.38;;;29.30;99.90;;;;;;5034991;28;20468;-77
2023/06/11 12:39:21;;;;;;;2.40;2.20;;;29.00;99.90;;;;;;5030773;28;20210;-77
2023/06/11 12:41:48;;;;;;;3.85;2.83;;;28.50;99.90;;;;;;5029515;28;20222;-77
2023/06/11 12:44:15;;;;;;;2.22;2.10;;;28.00;99.90;;;;;;5030777;28;20301;-76
2023/06/11 12:46:42;;;;;;;2.30;2.10;;;27.70;99.90;;;;;;5034303;28;20211;-77
2023/06/11 12:49:11;;;;;;;2.67;2.47;;;27.40;99.90;;;;;;5032820;28;20305;-78
2023/06/11 12:51:38;;;;;;;2.40;2.20;;;27.10;99.90;;;;;;5033075;28;20551;-79
2023/06/11 12:54:05;;;;;;;2.20;2.10;;;27.10;99.90;;;;;;5029270;28;20223;-76
2023/06/11 12:56:32;;;;;;;2.25;2.15;;;27.30;99.90;;;;;;5030652;28;20628;-77
2023/06/11 12:58:59;;;;;;;2.45;2.25;;;27.60;99.90;;;;;;5031438;28;20266;-77